createdAt,value
2019-01-22T00:00:43.759Z,-3.61
2019-01-22T00:03:15.324Z,-3.49
2019-01-22T00:05:46.964Z,-3.30
2019-01-22T00:08:18.486Z,-3.15
2019-01-22T00:10:50.206Z,-3.07
2019-01-22T00:13:21.762Z,-3.03
2019-01-22T00:15:53.872Z,-3.09
2019-01-22T00:18:25.468Z,-2.88
2019-01-22T00:20:57.086Z,-2.76
2019-01-22T00:23:28.970Z,-2.97
2019-01-22T00:26:00.524Z,-2.89
2019-01-22T00:28:32.050Z,-2.86
2019-01-22T00:31:03.529Z,-2.81
2019-01-22T00:33:35.038Z,-2.89
2019-01-22T00:36:06.534Z,-2.83
2019-01-22T00:38:38.148Z,-2.92
2019-01-22T00:41:09.622Z,-2.97
2019-01-22T00:43:41.139Z,-2.92
2019-01-22T00:46:12.881Z,-2.94
2019-01-22T00:48:44.466Z,-3.08
2019-01-22T00:51:16.079Z,-3.09
2019-01-22T00:53:48.966Z,-2.97
2019-01-22T00:56:20.602Z,-2.82
2019-01-22T00:58:52.137Z,-2.91
2019-01-22T01:01:23.831Z,-2.96
2019-01-22T01:03:55.329Z,-3.05
2019-01-22T01:06:28.475Z,-2.98
2019-01-22T01:09:00.765Z,-3.00
2019-01-22T01:11:34.244Z,-3.03
2019-01-22T01:14:06.249Z,-3.03
2019-01-22T01:16:38.067Z,-3.05
2019-01-22T01:19:09.543Z,-2.95
2019-01-22T01:21:41.261Z,-2.83
2019-01-22T01:24:13.039Z,-2.75
2019-01-22T01:26:44.651Z,-2.70
2019-01-22T01:29:16.195Z,-2.65
2019-01-22T01:31:48.082Z,-2.62
2019-01-22T01:34:19.595Z,-2.58
2019-01-22T01:36:51.342Z,-2.53
2019-01-22T01:39:23.041Z,-2.49
2019-01-22T01:41:54.643Z,-2.52
2019-01-22T01:44:26.172Z,-2.50
2019-01-22T01:46:57.704Z,-2.51
2019-01-22T01:49:29.207Z,-2.53
2019-01-22T01:52:00.841Z,-2.53
2019-01-22T01:54:32.291Z,-2.47
2019-01-22T01:57:03.956Z,-2.50
2019-01-22T01:59:35.431Z,-2.48
2019-01-22T02:02:07.167Z,-2.51
2019-01-22T02:04:38.620Z,-2.43
2019-01-22T02:07:10.642Z,-2.52
2019-01-22T02:09:42.580Z,-2.51
2019-01-22T02:12:14.696Z,-2.55
2019-01-22T02:14:55.809Z,-2.59
2019-01-22T02:18:36.501Z,-2.63
2019-01-22T02:22:07.787Z,-2.60
2019-01-22T02:25:12.752Z,-2.65
2019-01-22T02:28:44.471Z,-2.64
2019-01-22T02:32:01.228Z,-2.64
2019-01-22T02:35:18.336Z,-2.69
2019-01-22T02:39:08.710Z,-2.64
2019-01-22T02:42:11.711Z,-2.70
2019-01-22T02:45:31.200Z,-2.72
2019-01-22T02:49:05.092Z,-2.74
2019-01-22T02:52:22.205Z,-2.69
2019-01-22T02:55:25.041Z,-2.76
2019-01-22T02:59:02.257Z,-2.77
2019-01-22T03:02:37.014Z,-2.75
2019-01-22T03:05:51.466Z,-2.69
2019-01-22T03:09:29.675Z,-2.78
2019-01-22T03:12:45.338Z,-2.82
2019-01-22T03:16:14.897Z,-2.79
2019-01-22T03:19:24.553Z,-2.85
2019-01-22T03:23:08.112Z,-2.90
2019-01-22T03:26:22.009Z,-2.87
2019-01-22T03:29:18.510Z,-2.83
2019-01-22T03:32:07.296Z,-2.86
2019-01-22T03:35:40.868Z,-2.85
2019-01-22T03:38:53.420Z,-2.88
2019-01-22T03:42:28.929Z,-2.88
2019-01-22T03:45:52.928Z,-2.93
2019-01-22T03:49:22.092Z,-2.96
2019-01-22T03:52:24.819Z,-2.94
2019-01-22T03:55:40.656Z,-2.96
2019-01-22T03:58:14.455Z,-2.89
2019-01-22T04:01:16.836Z,-2.82
2019-01-22T04:03:48.799Z,-2.89
2019-01-22T04:06:43.584Z,-2.87
2019-01-22T04:10:12.695Z,-2.84
2019-01-22T04:12:44.346Z,-2.85
2019-01-22T04:15:19.385Z,-2.86
2019-01-22T04:17:50.827Z,-2.83
2019-01-22T04:20:22.544Z,-2.90
2019-01-22T04:23:17.984Z,-2.98
2019-01-22T04:26:22.439Z,-2.92
2019-01-22T04:29:26.788Z,-2.91
2019-01-22T04:32:29.064Z,-2.94
2019-01-22T04:35:43.507Z,-2.90
2019-01-22T04:39:05.659Z,-2.98
2019-01-22T04:42:08.368Z,-2.98
2019-01-22T04:45:50.916Z,-2.94
2019-01-22T04:49:14.335Z,-2.89
2019-01-22T04:52:35.588Z,-2.99
2019-01-22T04:56:01.602Z,-2.96
2019-01-22T04:59:40.387Z,-2.93
2019-01-22T05:02:43.538Z,-2.95
2019-01-22T05:05:41.360Z,-2.97
2019-01-22T05:09:10.363Z,-2.95
2019-01-22T05:12:40.898Z,-2.85
2019-01-22T05:16:33.539Z,-2.93
2019-01-22T05:20:12.340Z,-2.92
2019-01-22T05:23:21.037Z,-2.95
2019-01-22T05:26:53.757Z,-2.97
2019-01-22T05:30:25.019Z,-2.98
2019-01-22T05:33:55.335Z,-2.99
2019-01-22T05:37:35.580Z,-3.04
2019-01-22T05:41:09.790Z,-3.01
2019-01-22T05:44:15.090Z,-3.05
2019-01-22T05:47:43.874Z,-3.03
2019-01-22T05:50:54.820Z,-3.13
2019-01-22T05:54:13.440Z,-3.13
2019-01-22T05:57:13.361Z,-3.15
2019-01-22T06:00:33.650Z,-3.11
2019-01-22T06:03:43.106Z,-3.08
2019-01-22T06:07:02.267Z,-3.07
2019-01-22T06:10:40.096Z,-3.07
2019-01-22T06:14:13.992Z,-3.16
2019-01-22T06:17:50.676Z,-3.23
2019-01-22T06:21:43.536Z,-3.12
2019-01-22T06:24:45.729Z,-3.21
2019-01-22T06:28:11.569Z,-3.20
2019-01-22T06:31:26.443Z,-3.31
2019-01-22T06:35:04.135Z,-3.22
2019-01-22T06:38:06.022Z,-3.24
2019-01-22T06:41:49.746Z,-3.16
2019-01-22T06:45:36.662Z,-3.20
2019-01-22T06:48:33.710Z,-3.23
2019-01-22T06:52:14.036Z,-3.06
2019-01-22T06:55:24.216Z,-3.01
2019-01-22T06:58:49.330Z,-3.02
2019-01-22T07:01:47.025Z,-2.97
2019-01-22T07:05:09.685Z,-2.93
2019-01-22T07:09:10.379Z,-2.92
2019-01-22T07:12:33.420Z,-2.87
2019-01-22T07:16:15.570Z,-2.86
2019-01-22T07:19:36.334Z,-2.80
2019-01-22T07:23:00.682Z,-2.84
2019-01-22T07:26:30.044Z,-2.79
2019-01-22T07:29:37.874Z,-2.78
2019-01-22T07:32:47.642Z,-2.73
2019-01-22T07:35:52.036Z,-2.72
2019-01-22T07:38:51.995Z,-2.73
2019-01-22T07:42:27.532Z,-2.70
2019-01-22T07:46:00.114Z,-2.65
2019-01-22T07:48:43.256Z,-2.65
2019-01-22T07:51:31.385Z,-2.66
2019-01-22T07:55:23.971Z,-2.72
2019-01-22T07:58:52.994Z,-2.54
2019-01-22T08:02:33.822Z,-2.52
2019-01-22T08:05:38.100Z,-2.45
2019-01-22T08:08:55.280Z,-2.37
2019-01-22T08:12:13.851Z,-2.34
2019-01-22T08:15:45.716Z,-2.28
2019-01-22T08:19:35.639Z,-2.37
2019-01-22T08:23:03.720Z,-2.28
2019-01-22T08:26:26.365Z,-2.32
2019-01-22T08:29:33.821Z,-2.17
2019-01-22T08:32:36.410Z,-2.05
2019-01-22T08:36:03.395Z,-1.92
2019-01-22T08:39:00.614Z,-1.91
2019-01-22T08:42:42.300Z,-1.90
2019-01-22T08:46:12.922Z,-1.91
2019-01-22T08:49:53.923Z,-1.70
2019-01-22T08:52:50.857Z,-1.81
2019-01-22T08:56:09.748Z,-1.47
2019-01-22T08:59:24.005Z,-1.41
2019-01-22T09:02:51.574Z,-1.17
2019-01-22T09:06:03.921Z,-1.13
2019-01-22T09:09:05.538Z,-1.08
2019-01-22T09:12:20.965Z,-1.09
2019-01-22T09:15:36.175Z,-1.03
2019-01-22T09:19:03.049Z,-0.88
2019-01-22T09:22:18.522Z,-0.72
2019-01-22T09:25:00.437Z,-0.50
2019-01-22T09:28:38.920Z,-0.34
2019-01-22T09:32:17.871Z,-0.15
2019-01-22T09:35:31.052Z,-0.13
2019-01-22T09:38:07.038Z,-0.14
2019-01-22T09:40:41.179Z,-0.11
2019-01-22T09:43:12.735Z,-0.09
2019-01-22T09:45:44.287Z,-0.20
2019-01-22T09:48:15.835Z,-0.32
2019-01-22T09:50:47.312Z,-0.32
2019-01-22T09:53:18.839Z,-0.31
2019-01-22T09:55:50.471Z,-0.30
2019-01-22T09:58:21.956Z,-0.22
2019-01-22T10:00:53.544Z,-0.25
2019-01-22T10:03:25.325Z,-0.31
2019-01-22T10:05:57.136Z,-0.44
2019-01-22T10:08:28.701Z,-0.40
2019-01-22T10:11:01.737Z,-0.25
2019-01-22T10:13:34.446Z,-0.15
2019-01-22T10:16:05.991Z,-0.13
2019-01-22T10:18:37.564Z,-0.06
2019-01-22T10:21:09.075Z,-0.06
2019-01-22T10:23:46.846Z,0.14
2019-01-22T10:26:17.131Z,0.13
2019-01-22T10:28:48.679Z,0.34
2019-01-22T10:31:20.326Z,0.42
2019-01-22T10:33:51.800Z,0.52
2019-01-22T10:36:24.106Z,0.69
2019-01-22T10:38:55.597Z,0.85
2019-01-22T10:41:27.230Z,0.88
2019-01-22T10:43:58.767Z,1.05
2019-01-22T10:46:32.780Z,0.93
2019-01-22T10:49:04.315Z,0.81
2019-01-22T10:51:35.914Z,0.88
2019-01-22T10:54:07.467Z,1.01
2019-01-22T10:56:39.318Z,0.95
2019-01-22T10:59:10.826Z,0.99
2019-01-22T11:01:42.628Z,0.87
2019-01-22T11:04:14.228Z,0.88
2019-01-22T11:06:45.821Z,0.92
2019-01-22T11:09:17.366Z,1.00
2019-01-22T11:11:49.534Z,0.72
2019-01-22T11:14:20.974Z,0.85
2019-01-22T11:16:52.694Z,0.78
2019-01-22T11:19:27.752Z,0.83
2019-01-22T11:21:57.674Z,0.77
2019-01-22T11:24:30.403Z,0.83
2019-01-22T11:27:02.582Z,0.84
2019-01-22T11:29:34.100Z,0.89
2019-01-22T11:32:05.674Z,0.69
2019-01-22T11:34:37.241Z,0.79
2019-01-22T11:37:08.760Z,0.93
2019-01-22T11:39:40.219Z,1.00
2019-01-22T11:42:12.090Z,0.82
2019-01-22T11:44:43.677Z,0.87
2019-01-22T11:47:15.286Z,0.88
2019-01-22T11:49:46.865Z,1.02
2019-01-22T11:52:18.465Z,0.83
2019-01-22T11:54:50.159Z,0.87
2019-01-22T11:57:21.977Z,0.86
2019-01-22T11:59:53.460Z,0.88
2019-01-22T12:02:31.783Z,0.89
2019-01-22T12:04:58.421Z,0.83
2019-01-22T12:07:30.161Z,0.89
2019-01-22T12:10:01.698Z,1.17
2019-01-22T12:12:33.294Z,1.45
2019-01-22T12:15:05.977Z,1.72
2019-01-22T12:17:38.223Z,1.94
2019-01-22T12:20:15.445Z,1.64
2019-01-22T12:22:48.617Z,1.80
2019-01-22T12:25:20.094Z,2.01
2019-01-22T12:27:53.476Z,1.99
2019-01-22T12:30:28.797Z,1.53
2019-01-22T12:33:00.676Z,2.00
2019-01-22T12:35:32.279Z,2.50
2019-01-22T12:38:04.080Z,3.01
2019-01-22T12:40:35.643Z,3.18
2019-01-22T12:43:08.103Z,3.61
2019-01-22T12:45:40.795Z,3.66
2019-01-22T12:48:12.753Z,4.39
2019-01-22T12:50:44.245Z,4.16
2019-01-22T12:53:16.354Z,3.80
2019-01-22T12:55:47.902Z,3.12
2019-01-22T12:58:20.725Z,2.75
2019-01-22T13:00:52.200Z,2.62
2019-01-22T13:03:23.794Z,2.95
2019-01-22T13:06:05.715Z,3.22
2019-01-22T13:08:37.627Z,3.40
2019-01-22T13:11:09.142Z,2.73
2019-01-22T13:13:41.097Z,2.92
2019-01-22T13:16:12.660Z,3.06
2019-01-22T13:18:44.418Z,2.77
2019-01-22T13:21:17.056Z,3.10
2019-01-22T13:23:48.938Z,3.45
2019-01-22T13:26:20.435Z,3.49
2019-01-22T13:28:52.066Z,3.49
2019-01-22T13:31:23.766Z,3.22
2019-01-22T13:33:57.510Z,3.09
2019-01-22T13:36:30.067Z,3.28
2019-01-22T13:39:01.985Z,3.32
2019-01-22T13:41:33.923Z,3.40
2019-01-22T13:44:05.734Z,3.56
2019-01-22T13:46:37.211Z,3.30
2019-01-22T13:49:08.874Z,3.06
2019-01-22T13:51:40.377Z,3.12
2019-01-22T13:54:12.024Z,3.14
2019-01-22T13:56:43.588Z,3.38
2019-01-22T13:59:15.559Z,3.27
2019-01-22T14:01:47.091Z,2.71
2019-01-22T14:04:18.932Z,2.54
2019-01-22T14:06:50.411Z,2.26
2019-01-22T14:09:22.027Z,2.18
2019-01-22T14:11:53.495Z,2.10
2019-01-22T14:14:25.394Z,1.87
2019-01-22T14:16:56.864Z,1.61
2019-01-22T14:19:28.577Z,1.26
2019-01-22T14:22:00.200Z,1.22
2019-01-22T14:24:32.095Z,1.13
2019-01-22T14:27:03.659Z,0.99
2019-01-22T14:29:35.549Z,0.76
2019-01-22T14:32:07.055Z,0.64
2019-01-22T14:34:38.832Z,0.53
2019-01-22T14:37:10.535Z,0.41
2019-01-22T14:39:42.235Z,0.31
2019-01-22T14:42:13.790Z,0.28
2019-01-22T14:44:46.027Z,0.23
2019-01-22T14:47:17.766Z,-0.01
2019-01-22T14:49:49.402Z,-0.04
2019-01-22T14:52:21.301Z,-0.05
2019-01-22T14:54:52.828Z,-0.17
2019-01-22T14:57:24.300Z,-0.23
2019-01-22T14:59:56.193Z,-0.23
2019-01-22T15:02:27.691Z,-0.29
2019-01-22T15:04:59.409Z,-0.46
2019-01-22T15:07:30.975Z,-0.48
2019-01-22T15:10:02.566Z,-0.54
2019-01-22T15:12:34.122Z,-0.62
2019-01-22T15:15:07.255Z,-0.69
2019-01-22T15:17:38.862Z,-0.74
2019-01-22T15:20:15.393Z,-0.77
2019-01-22T15:22:49.379Z,-0.84
2019-01-22T15:25:21.053Z,-0.86
2019-01-22T15:27:52.597Z,-0.97
2019-01-22T15:30:35.831Z,-1.00
2019-01-22T15:33:08.711Z,-1.06
2019-01-22T15:35:40.508Z,-1.06
2019-01-22T15:38:12.014Z,-1.12
2019-01-22T15:40:44.013Z,-1.14
2019-01-22T15:43:15.604Z,-1.14
2019-01-22T15:45:49.584Z,-1.20
2019-01-22T15:48:21.173Z,-1.29
2019-01-22T15:50:52.957Z,-1.37
2019-01-22T15:53:24.431Z,-1.40
2019-01-22T15:55:56.171Z,-1.40
2019-01-22T15:58:27.761Z,-1.48
2019-01-22T16:00:59.918Z,-1.48
2019-01-22T16:03:31.466Z,-1.54
2019-01-22T16:06:06.311Z,-1.56
2019-01-22T16:08:37.792Z,-1.60
2019-01-22T16:11:09.727Z,-1.62
2019-01-22T16:13:41.597Z,-1.71
2019-01-22T16:16:13.423Z,-1.74
2019-01-22T16:18:44.952Z,-1.72
2019-01-22T16:21:16.551Z,-1.76
2019-01-22T16:23:48.136Z,-1.80
2019-01-22T16:26:19.804Z,-1.84
2019-01-22T16:28:51.280Z,-1.85
2019-01-22T16:31:23.244Z,-1.92
2019-01-22T16:33:54.768Z,-1.92
2019-01-22T16:36:26.435Z,-1.95
2019-01-22T16:38:58.204Z,-1.96
2019-01-22T16:41:29.948Z,-1.98
2019-01-22T16:44:01.553Z,-2.03
2019-01-22T16:46:33.723Z,-2.08
2019-01-22T16:49:05.354Z,-2.11
2019-01-22T16:51:37.094Z,-2.09
2019-01-22T16:54:08.762Z,-2.17
2019-01-22T16:56:40.604Z,-2.22
2019-01-22T16:59:12.166Z,-2.28
2019-01-22T17:01:44.280Z,-2.28
2019-01-22T17:04:17.656Z,-2.25
2019-01-22T17:06:49.536Z,-2.34
2019-01-22T17:09:25.306Z,-2.32
2019-01-22T17:11:54.584Z,-2.36
2019-01-22T17:14:26.145Z,-2.38
2019-01-22T17:16:58.310Z,-2.39
2019-01-22T17:19:29.905Z,-2.39
2019-01-22T17:22:01.709Z,-2.47
2019-01-22T17:24:33.263Z,-2.52
2019-01-22T17:27:07.327Z,-2.55
2019-01-22T17:29:38.831Z,-2.57
2019-01-22T17:32:24.540Z,-2.58
2019-01-22T17:34:57.840Z,-2.59
2019-01-22T17:37:29.704Z,-2.63
2019-01-22T17:40:01.583Z,-2.69
2019-01-22T17:42:33.215Z,-2.71
2019-01-22T17:45:05.465Z,-2.74
2019-01-22T17:47:37.554Z,-2.77
2019-01-22T17:50:11.422Z,-2.82
2019-01-22T17:52:43.118Z,-2.86
2019-01-22T17:55:14.763Z,-2.85
2019-01-22T17:57:46.994Z,-2.87
2019-01-22T18:00:21.257Z,-2.96
2019-01-22T18:02:53.234Z,-2.95
2019-01-22T18:05:25.736Z,-2.97
2019-01-22T18:07:57.389Z,-3.07
2019-01-22T18:10:29.013Z,-3.09
2019-01-22T18:13:00.993Z,-3.10
2019-01-22T18:15:32.703Z,-3.12
2019-01-22T18:18:04.736Z,-3.12
2019-01-22T18:20:36.220Z,-3.13
2019-01-22T18:23:07.946Z,-3.13
2019-01-22T18:25:39.505Z,-3.17
2019-01-22T18:28:11.315Z,-3.19
2019-01-22T18:30:43.381Z,-3.22
2019-01-22T18:33:16.650Z,-3.22
2019-01-22T18:35:48.354Z,-3.31
2019-01-22T18:38:20.649Z,-3.34
2019-01-22T18:40:52.230Z,-3.36
2019-01-22T18:43:24.029Z,-3.34
2019-01-22T18:45:55.546Z,-3.34
2019-01-22T18:48:27.234Z,-3.35
2019-01-22T18:50:58.870Z,-3.32
2019-01-22T18:53:30.614Z,-3.35
2019-01-22T18:56:02.451Z,-3.36
2019-01-22T18:58:34.244Z,-3.44
2019-01-22T19:01:05.830Z,-3.44
2019-01-22T19:03:37.788Z,-3.52
2019-01-22T19:06:09.397Z,-3.51
2019-01-22T19:08:41.111Z,-3.60
2019-01-22T19:11:12.781Z,-3.54
2019-01-22T19:13:44.420Z,-3.61
2019-01-22T19:16:16.254Z,-3.56
2019-01-22T19:18:48.643Z,-3.57
2019-01-22T19:21:20.201Z,-3.55
2019-01-22T19:23:51.965Z,-3.51
2019-01-22T19:26:23.672Z,-3.51
2019-01-22T19:28:55.345Z,-3.46
2019-01-22T19:31:27.241Z,-3.39
2019-01-22T19:33:59.077Z,-3.31
2019-01-22T19:36:30.752Z,-3.28
2019-01-22T19:39:02.515Z,-3.27
2019-01-22T19:41:34.102Z,-3.25
2019-01-22T19:44:05.767Z,-3.22
2019-01-22T19:46:37.738Z,-3.22
2019-01-22T19:49:09.769Z,-3.25
2019-01-22T19:51:41.757Z,-3.23
2019-01-22T19:54:13.682Z,-3.24
2019-01-22T19:56:45.238Z,-3.27
2019-01-22T19:59:17.104Z,-3.25
2019-01-22T20:01:48.755Z,-3.22
2019-01-22T20:04:20.877Z,-3.16
2019-01-22T20:06:52.655Z,-3.25
2019-01-22T20:09:24.418Z,-3.18
2019-01-22T20:11:55.962Z,-3.31
2019-01-22T20:14:27.869Z,-3.25
2019-01-22T20:16:59.603Z,-3.34
2019-01-22T20:19:32.023Z,-3.28
2019-01-22T20:22:04.076Z,-3.31
2019-01-22T20:24:36.268Z,-3.39
2019-01-22T20:27:08.144Z,-3.40
2019-01-22T20:29:39.944Z,-3.43
2019-01-22T20:32:11.469Z,-3.48
2019-01-22T20:34:43.707Z,-3.48
2019-01-22T20:37:15.545Z,-3.48
2019-01-22T20:39:47.605Z,-3.49
2019-01-22T20:42:19.497Z,-3.49
2019-01-22T20:44:51.331Z,-3.48
2019-01-22T20:47:22.927Z,-3.48
2019-01-22T20:49:55.176Z,-3.51
2019-01-22T20:52:26.773Z,-3.54
2019-01-22T20:54:58.550Z,-3.55
2019-01-22T20:57:30.270Z,-3.57
2019-01-22T21:00:02.193Z,-3.58
2019-01-22T21:02:33.772Z,-3.58
2019-01-22T21:05:09.581Z,-3.61
2019-01-22T21:07:41.337Z,-3.64
2019-01-22T21:10:18.531Z,-3.71
2019-01-22T21:12:50.163Z,-3.76
2019-01-22T21:15:21.764Z,-3.76
2019-01-22T21:17:53.563Z,-3.79
2019-01-22T21:20:25.642Z,-3.84
2019-01-22T21:22:57.512Z,-3.86
2019-01-22T21:25:29.705Z,-3.88
2019-01-22T21:28:02.049Z,-3.93
2019-01-22T21:30:38.513Z,-3.95
2019-01-22T21:33:11.374Z,-3.95
2019-01-22T21:35:43.081Z,-3.95
2019-01-22T21:38:14.636Z,-3.96
2019-01-22T21:40:46.235Z,-3.97
2019-01-22T21:43:19.376Z,-3.96
2019-01-22T21:45:52.233Z,-3.94
2019-01-22T21:48:23.918Z,-3.95
2019-01-22T21:50:55.952Z,-3.97
2019-01-22T21:53:27.618Z,-4.00
2019-01-22T21:55:59.613Z,-4.00
2019-01-22T21:58:31.161Z,-4.05
2019-01-22T22:01:04.367Z,-4.05
2019-01-22T22:03:35.851Z,-4.09
2019-01-22T22:06:07.691Z,-4.10
2019-01-22T22:08:39.175Z,-4.11
2019-01-22T22:11:11.182Z,-4.12
2019-01-22T22:13:42.705Z,-4.11
2019-01-22T22:16:14.509Z,-4.13
2019-01-22T22:18:46.310Z,-4.16
2019-01-22T22:21:18.127Z,-4.19
2019-01-22T22:23:49.703Z,-4.19
2019-01-22T22:26:21.440Z,-4.24
2019-01-22T22:28:53.001Z,-4.25
2019-01-22T22:31:27.303Z,-4.24
2019-01-22T22:33:58.839Z,-4.23
2019-01-22T22:36:30.362Z,-4.28
2019-01-22T22:39:01.926Z,-4.29
2019-01-22T22:41:34.063Z,-4.29
2019-01-22T22:44:05.653Z,-4.26
2019-01-22T22:46:37.241Z,-4.22
2019-01-22T22:49:08.787Z,-4.17
2019-01-22T22:51:40.659Z,-4.10
2019-01-22T22:54:12.219Z,-4.01
2019-01-22T22:56:44.079Z,-3.96
2019-01-22T22:59:15.735Z,-3.95
2019-01-22T23:01:47.696Z,-3.87
2019-01-22T23:04:19.183Z,-3.83
2019-01-22T23:06:51.028Z,-3.94
2019-01-22T23:09:22.548Z,-3.85
2019-01-22T23:11:54.160Z,-3.91
2019-01-22T23:14:25.756Z,-3.95
2019-01-22T23:16:57.293Z,-3.90
2019-01-22T23:19:28.733Z,-3.88
2019-01-22T23:22:00.639Z,-3.95
2019-01-22T23:24:32.098Z,-3.97
2019-01-22T23:27:03.672Z,-3.96
2019-01-22T23:29:35.177Z,-3.99
2019-01-22T23:32:06.789Z,-3.99
2019-01-22T23:34:38.268Z,-4.02
2019-01-22T23:37:10.046Z,-4.05
2019-01-22T23:39:41.615Z,-4.03
2019-01-22T23:42:13.167Z,-4.10
2019-01-22T23:44:44.644Z,-4.08
2019-01-22T23:47:16.161Z,-4.10
2019-01-22T23:49:48.794Z,-4.09
2019-01-22T23:52:20.829Z,-4.12
2019-01-22T23:54:52.744Z,-4.18
2019-01-22T23:57:24.205Z,-4.15
2019-01-22T23:59:55.708Z,-4.20
